Gunnison, CO

04:21 MDT le 23 septembre 2014 (GMT -0600)
Gunnison County | Change Station
CLOSE
Current Station
Aéroport
Location: Gunnison,
Altitude: 7674 ft
Stations météo à proximité

Alt. 7674 ft 38.53 °N, 106.93 °W | Updated 6 minutes ago

Partiellement nuageux
Partiellement nuageux
46 ° F
Paraît 46 ° F
N
0
Vent Variable Vent de Nord

Aujourd'hui
Haut(e) -- | Bas -- ° F
--% Risque de précip.
Hier
Haut(e) -- | Bas -- ° F
Precip. -- pouce
6:56 AM 7:03 PM
Lune descendante, 1% visible
Pression 30.37 pouce
Visibilité 10.0 Miles terrestres
Nuages Peu 8500 ft
Point de rosée 43 ° F
Humidité 87%
Précipitations 0.00 pouce
Profondeur de la couche neigeuse 0 in , 0 in , 0 in
UV 0 sur 12
Pollen 4.70 sur 12
Qualité de l'air Non disponible.
Flu Activity Non disponible.
METAR KGUC 231015Z AUTO 00000KT 10SM FEW085 08/06 A3037 RMK AO1

More Conditions Fewer Conditions

Pression 30.37 pouce
Visibilité 10.0 Miles terrestres
Nuages Peu 8500 ft
Point de rosée 43 ° F
Humidité 87%
Précipitations 0.00 pouce
Profondeur de la couche neigeuse 0 in , 0 in , 0 in
UV 0 sur 12
Pollen 4.70 sur 12
Qualité de l'air Non disponible.
Flu Activity Non disponible.
METAR KGUC 231015Z AUTO 00000KT 10SM FEW085 08/06 A3037 RMK AO1

More Conditions Fewer Conditions

10-Day Weather Forecast

Almanac

Astronomie

Sep. 23, 2014 Lever Coucher
Temps réel 06:56 MDT 19:03 MDT
Crépuscule civil 06:29 MDT 19:29 MDT
Crépuscule nautique 05:58 MDT 20:00 MDT
Crépuscule astronomique 05:27 MDT 20:31 MDT
Lune 06:23 MDT 18:43 MDT
Durée de lumière visible 12h 59m
Longueur du jour
12h 06m
Tomorrow will be 2m 29s shorter.
Lune descendante, 1% of the Moon is Illuminated
Aujourd'hui
Lune descendante
Sep 24
Nouveau
Oct 1
Premier quartier
Oct 8
Pleine lune
Oct 15
Dernier quartier

Extrêmes aujourd'hui

State Highs State Lows

Community

WunderPhotos

Upload Photos

1,755,645 Photos téléchargées !

Nearby

Épaisseur de neige

Station Depth Altitude
Roach 0 in 9700 ft
Willow Park 0 in 10700 ft
Joe Wright 0 in 10120 ft
Lizard Head Pass 1 in 10200 ft
Columbus Basin 0 in 10785 ft

Activité sismique

Ville Distance Mag. Time & Date
No recent earthquake activity has been reported nearby.
Minimum magnitude displayed is 2.5.

Températures des eaux côtières

Lieu Température
Aucun rapport de station

Stations météo à proximité